sensor_id;sensor_type;location;lat;lon;timestamp;temperature;humidity
12819;DHT22;6474;53.474;9.894;2023-05-07T00:00:00;10.00;69.00
12819;DHT22;6474;53.474;9.894;2023-05-07T00:02:33;10.10;69.10
12819;DHT22;6474;53.474;9.894;2023-05-07T00:05:04;10.10;69.10
12819;DHT22;6474;53.474;9.894;2023-05-07T00:07:31;10.10;69.00
12819;DHT22;6474;53.474;9.894;2023-05-07T00:10:03;10.10;69.00
12819;DHT22;6474;53.474;9.894;2023-05-07T00:12:31;10.10;69.00
12819;DHT22;6474;53.474;9.894;2023-05-07T00:15:01;10.10;68.90
12819;DHT22;6474;53.474;9.894;2023-05-07T00:17:29;10.10;69.00
12819;DHT22;6474;53.474;9.894;2023-05-07T00:19:57;10.10;68.90
12819;DHT22;6474;53.474;9.894;2023-05-07T00:22:26;10.10;68.90
12819;DHT22;6474;53.474;9.894;2023-05-07T00:24:56;10.10;68.90
12819;DHT22;6474;53.474;9.894;2023-05-07T00:27:24;10.10;68.90
12819;DHT22;6474;53.474;9.894;2023-05-07T00:29:52;10.10;69.00
12819;DHT22;6474;53.474;9.894;2023-05-07T00:32:20;10.10;69.00
12819;DHT22;6474;53.474;9.894;2023-05-07T00:34:48;10.00;68.90
12819;DHT22;6474;53.474;9.894;2023-05-07T00:37:17;10.00;69.00
12819;DHT22;6474;53.474;9.894;2023-05-07T00:39:46;10.00;69.00
12819;DHT22;6474;53.474;9.894;2023-05-07T00:42:14;10.00;69.00
12819;DHT22;6474;53.474;9.894;2023-05-07T00:44:42;10.00;69.00
12819;DHT22;6474;53.474;9.894;2023-05-07T00:47:10;10.00;69.00
12819;DHT22;6474;53.474;9.894;2023-05-07T00:49:41;10.00;69.00
12819;DHT22;6474;53.474;9.894;2023-05-07T00:52:09;10.00;69.00
12819;DHT22;6474;53.474;9.894;2023-05-07T00:54:40;10.00;68.90
12819;DHT22;6474;53.474;9.894;2023-05-07T00:57:10;10.10;69.00
12819;DHT22;6474;53.474;9.894;2023-05-07T00:59:39;10.10;69.00
12819;DHT22;6474;53.474;9.894;2023-05-07T01:02:07;10.10;69.00
12819;DHT22;6474;53.474;9.894;2023-05-07T01:04:35;10.00;68.90
12819;DHT22;6474;53.474;9.894;2023-05-07T01:07:05;10.00;68.90
12819;DHT22;6474;53.474;9.894;2023-05-07T01:09:34;10.00;68.90
12819;DHT22;6474;53.474;9.894;2023-05-07T01:12:03;10.00;69.00
12819;DHT22;6474;53.474;9.894;2023-05-07T01:14:33;10.00;69.10
12819;DHT22;6474;53.474;9.894;2023-05-07T01:17:01;10.00;69.10
12819;DHT22;6474;53.474;9.894;2023-05-07T01:19:30;10.00;69.10
12819;DHT22;6474;53.474;9.894;2023-05-07T01:22:02;10.00;69.00
12819;DHT22;6474;53.474;9.894;2023-05-07T01:24:33;10.00;69.00
12819;DHT22;6474;53.474;9.894;2023-05-07T01:27:02;10.00;69.00
12819;DHT22;6474;53.474;9.894;2023-05-07T01:29:30;10.00;69.00
12819;DHT22;6474;53.474;9.894;2023-05-07T01:31:59;9.90;70.00
12819;DHT22;6474;53.474;9.894;2023-05-07T01:34:31;10.00;69.00
12819;DHT22;6474;53.474;9.894;2023-05-07T01:37:00;9.90;70.10
12819;DHT22;6474;53.474;9.894;2023-05-07T01:39:30;9.90;70.20
12819;DHT22;6474;53.474;9.894;2023-05-07T01:41:59;9.90;70.20
12819;DHT22;6474;53.474;9.894;2023-05-07T01:44:27;9.90;70.20
12819;DHT22;6474;53.474;9.894;2023-05-07T01:46:57;9.90;70.20
12819;DHT22;6474;53.474;9.894;2023-05-07T01:49:25;9.90;70.20
12819;DHT22;6474;53.474;9.894;2023-05-07T01:51:53;9.90;70.30
12819;DHT22;6474;53.474;9.894;2023-05-07T01:54:25;9.90;70.20
12819;DHT22;6474;53.474;9.894;2023-05-07T01:56:54;9.90;70.30
12819;DHT22;6474;53.474;9.894;2023-05-07T01:59:24;9.90;70.20
12819;DHT22;6474;53.474;9.894;2023-05-07T02:01:51;10.00;69.10
12819;DHT22;6474;53.474;9.894;2023-05-07T02:04:19;9.90;70.10
12819;DHT22;6474;53.474;9.894;2023-05-07T02:06:47;10.00;69.00
12819;DHT22;6474;53.474;9.894;2023-05-07T02:09:15;10.00;69.00
12819;DHT22;6474;53.474;9.894;2023-05-07T02:11:44;10.00;69.00
12819;DHT22;6474;53.474;9.894;2023-05-07T02:14:12;9.90;70.00
12819;DHT22;6474;53.474;9.894;2023-05-07T02:16:41;9.90;70.00
12819;DHT22;6474;53.474;9.894;2023-05-07T02:19:09;10.00;69.00
12819;DHT22;6474;53.474;9.894;2023-05-07T02:21:36;9.90;70.10
12819;DHT22;6474;53.474;9.894;2023-05-07T02:24:05;9.90;70.10
12819;DHT22;6474;53.474;9.894;2023-05-07T02:26:32;9.90;70.10
12819;DHT22;6474;53.474;9.894;2023-05-07T02:29:00;9.90;70.10
12819;DHT22;6474;53.474;9.894;2023-05-07T02:31:29;9.90;70.10
12819;DHT22;6474;53.474;9.894;2023-05-07T02:33:58;9.90;70.10
12819;DHT22;6474;53.474;9.894;2023-05-07T02:36:26;9.90;70.10
12819;DHT22;6474;53.474;9.894;2023-05-07T02:38:54;9.90;70.10
12819;DHT22;6474;53.474;9.894;2023-05-07T02:41:22;9.90;70.00
12819;DHT22;6474;53.474;9.894;2023-05-07T02:43:50;9.90;70.10
12819;DHT22;6474;53.474;9.894;2023-05-07T02:46:17;9.90;70.10
12819;DHT22;6474;53.474;9.894;2023-05-07T02:48:45;9.90;70.10
12819;DHT22;6474;53.474;9.894;2023-05-07T02:51:14;9.90;70.10
12819;DHT22;6474;53.474;9.894;2023-05-07T02:53:42;9.90;70.20
12819;DHT22;6474;53.474;9.894;2023-05-07T02:56:10;9.80;70.20
12819;DHT22;6474;53.474;9.894;2023-05-07T02:58:38;9.80;70.20
12819;DHT22;6474;53.474;9.894;2023-05-07T03:01:06;9.80;70.20
12819;DHT22;6474;53.474;9.894;2023-05-07T03:03:34;9.80;70.20
12819;DHT22;6474;53.474;9.894;2023-05-07T03:06:03;9.80;70.20
12819;DHT22;6474;53.474;9.894;2023-05-07T03:08:32;9.80;70.20
12819;DHT22;6474;53.474;9.894;2023-05-07T03:11:00;9.80;70.20
12819;DHT22;6474;53.474;9.894;2023-05-07T03:13:28;9.90;70.30
12819;DHT22;6474;53.474;9.894;2023-05-07T03:15:55;9.90;70.30
12819;DHT22;6474;53.474;9.894;2023-05-07T03:18:23;9.90;70.20
12819;DHT22;6474;53.474;9.894;2023-05-07T03:20:51;9.90;70.20
12819;DHT22;6474;53.474;9.894;2023-05-07T03:23:19;9.90;70.20
12819;DHT22;6474;53.474;9.894;2023-05-07T03:25:51;9.90;70.10
12819;DHT22;6474;53.474;9.894;2023-05-07T03:28:19;9.90;70.40
12819;DHT22;6474;53.474;9.894;2023-05-07T03:30:47;9.90;70.20
12819;DHT22;6474;53.474;9.894;2023-05-07T03:33:15;9.90;70.10
12819;DHT22;6474;53.474;9.894;2023-05-07T03:35:43;9.90;70.30
12819;DHT22;6474;53.474;9.894;2023-05-07T03:38:11;9.90;70.30
12819;DHT22;6474;53.474;9.894;2023-05-07T03:40:38;9.90;70.30
12819;DHT22;6474;53.474;9.894;2023-05-07T03:43:07;9.90;70.20
12819;DHT22;6474;53.474;9.894;2023-05-07T03:45:35;9.90;70.20
12819;DHT22;6474;53.474;9.894;2023-05-07T03:48:03;9.80;70.10
12819;DHT22;6474;53.474;9.894;2023-05-07T03:50:32;9.80;70.10
12819;DHT22;6474;53.474;9.894;2023-05-07T03:52:59;9.90;70.30
12819;DHT22;6474;53.474;9.894;2023-05-07T03:55:27;9.90;70.20
12819;DHT22;6474;53.474;9.894;2023-05-07T03:57:55;9.90;70.20
12819;DHT22;6474;53.474;9.894;2023-05-07T04:00:24;9.90;70.20
12819;DHT22;6474;53.474;9.894;2023-05-07T04:02:52;9.90;70.20
12819;DHT22;6474;53.474;9.894;2023-05-07T04:05:20;9.90;70.20
12819;DHT22;6474;53.474;9.894;2023-05-07T04:07:47;9.90;70.10
12819;DHT22;6474;53.474;9.894;2023-05-07T04:10:15;9.90;70.10
12819;DHT22;6474;53.474;9.894;2023-05-07T04:12:43;9.90;70.20
12819;DHT22;6474;53.474;9.894;2023-05-07T04:15:11;9.90;70.20
12819;DHT22;6474;53.474;9.894;2023-05-07T04:17:40;9.90;70.20
12819;DHT22;6474;53.474;9.894;2023-05-07T04:20:09;9.90;70.20
12819;DHT22;6474;53.474;9.894;2023-05-07T04:22:38;9.90;70.20
12819;DHT22;6474;53.474;9.894;2023-05-07T04:25:07;9.90;70.30
12819;DHT22;6474;53.474;9.894;2023-05-07T04:27:35;9.90;70.20
12819;DHT22;6474;53.474;9.894;2023-05-07T04:30:05;9.90;70.20
12819;DHT22;6474;53.474;9.894;2023-05-07T04:32:33;9.90;70.20
12819;DHT22;6474;53.474;9.894;2023-05-07T04:35:02;9.90;70.20
12819;DHT22;6474;53.474;9.894;2023-05-07T04:37:31;10.00;69.90
12819;DHT22;6474;53.474;9.894;2023-05-07T04:39:59;9.90;70.20
12819;DHT22;6474;53.474;9.894;2023-05-07T04:42:29;10.00;69.10
12819;DHT22;6474;53.474;9.894;2023-05-07T04:44:57;10.00;69.10
12819;DHT22;6474;53.474;9.894;2023-05-07T04:47:25;10.00;69.00
12819;DHT22;6474;53.474;9.894;2023-05-07T04:49:53;10.00;69.00
12819;DHT22;6474;53.474;9.894;2023-05-07T04:52:22;10.10;69.00
12819;DHT22;6474;53.474;9.894;2023-05-07T04:54:52;10.10;69.00
12819;DHT22;6474;53.474;9.894;2023-05-07T04:57:20;10.10;69.00
12819;DHT22;6474;53.474;9.894;2023-05-07T04:59:48;10.10;69.00
12819;DHT22;6474;53.474;9.894;2023-05-07T05:02:16;10.10;69.00
12819;DHT22;6474;53.474;9.894;2023-05-07T05:04:46;10.10;69.00
12819;DHT22;6474;53.474;9.894;2023-05-07T05:07:14;10.10;68.90
12819;DHT22;6474;53.474;9.894;2023-05-07T05:09:43;10.20;69.00
12819;DHT22;6474;53.474;9.894;2023-05-07T05:12:11;10.20;69.00
12819;DHT22;6474;53.474;9.894;2023-05-07T05:14:39;10.20;69.00
12819;DHT22;6474;53.474;9.894;2023-05-07T05:17:07;10.20;69.00
12819;DHT22;6474;53.474;9.894;2023-05-07T05:19:34;10.20;69.00
12819;DHT22;6474;53.474;9.894;2023-05-07T05:22:02;10.20;69.00
12819;DHT22;6474;53.474;9.894;2023-05-07T05:24:30;10.20;69.00
12819;DHT22;6474;53.474;9.894;2023-05-07T05:26:59;10.20;69.00
12819;DHT22;6474;53.474;9.894;2023-05-07T05:29:28;10.20;69.00
12819;DHT22;6474;53.474;9.894;2023-05-07T05:31:57;10.20;69.00
12819;DHT22;6474;53.474;9.894;2023-05-07T05:34:25;10.20;69.00
12819;DHT22;6474;53.474;9.894;2023-05-07T05:36:52;10.20;69.00
12819;DHT22;6474;53.474;9.894;2023-05-07T05:39:20;10.20;69.10
12819;DHT22;6474;53.474;9.894;2023-05-07T05:41:49;10.10;69.00
12819;DHT22;6474;53.474;9.894;2023-05-07T05:44:21;10.20;69.20
12819;DHT22;6474;53.474;9.894;2023-05-07T05:46:48;10.10;69.00
12819;DHT22;6474;53.474;9.894;2023-05-07T05:49:16;10.20;69.10
12819;DHT22;6474;53.474;9.894;2023-05-07T05:51:44;10.20;69.20
12819;DHT22;6474;53.474;9.894;2023-05-07T05:54:12;10.20;69.10
12819;DHT22;6474;53.474;9.894;2023-05-07T05:56:41;10.20;69.20
12819;DHT22;6474;53.474;9.894;2023-05-07T05:59:09;10.20;69.20
12819;DHT22;6474;53.474;9.894;2023-05-07T06:01:38;10.20;69.20
12819;DHT22;6474;53.474;9.894;2023-05-07T06:04:06;10.30;69.40
12819;DHT22;6474;53.474;9.894;2023-05-07T06:06:34;10.30;69.40
12819;DHT22;6474;53.474;9.894;2023-05-07T06:09:02;10.30;69.20
12819;DHT22;6474;53.474;9.894;2023-05-07T06:11:31;10.30;69.20
12819;DHT22;6474;53.474;9.894;2023-05-07T06:13:59;10.40;69.30
12819;DHT22;6474;53.474;9.894;2023-05-07T06:16:27;10.40;69.30
12819;DHT22;6474;53.474;9.894;2023-05-07T06:18:56;10.40;69.20
12819;DHT22;6474;53.474;9.894;2023-05-07T06:21:23;10.50;69.20
12819;DHT22;6474;53.474;9.894;2023-05-07T06:23:51;10.40;69.10
12819;DHT22;6474;53.474;9.894;2023-05-07T06:26:21;10.50;69.10
12819;DHT22;6474;53.474;9.894;2023-05-07T06:28:49;10.50;69.10
12819;DHT22;6474;53.474;9.894;2023-05-07T06:31:18;10.60;69.10
12819;DHT22;6474;53.474;9.894;2023-05-07T06:33:48;10.60;69.20
12819;DHT22;6474;53.474;9.894;2023-05-07T06:36:17;10.60;69.10
12819;DHT22;6474;53.474;9.894;2023-05-07T06:38:45;10.60;69.10
12819;DHT22;6474;53.474;9.894;2023-05-07T06:41:13;10.60;69.10
12819;DHT22;6474;53.474;9.894;2023-05-07T06:43:40;10.70;69.20
12819;DHT22;6474;53.474;9.894;2023-05-07T06:46:08;10.70;69.20
12819;DHT22;6474;53.474;9.894;2023-05-07T06:48:36;10.80;69.20
12819;DHT22;6474;53.474;9.894;2023-05-07T06:51:04;10.80;69.20
12819;DHT22;6474;53.474;9.894;2023-05-07T06:53:34;10.80;69.20
12819;DHT22;6474;53.474;9.894;2023-05-07T06:56:02;10.80;69.20
12819;DHT22;6474;53.474;9.894;2023-05-07T06:58:30;10.90;69.30
12819;DHT22;6474;53.474;9.894;2023-05-07T07:00:58;10.90;69.30
12819;DHT22;6474;53.474;9.894;2023-05-07T07:03:26;10.90;69.30
12819;DHT22;6474;53.474;9.894;2023-05-07T07:05:53;10.90;69.30
12819;DHT22;6474;53.474;9.894;2023-05-07T07:08:22;10.90;69.20
12819;DHT22;6474;53.474;9.894;2023-05-07T07:10:51;11.00;69.30
12819;DHT22;6474;53.474;9.894;2023-05-07T07:13:19;11.00;69.30
12819;DHT22;6474;53.474;9.894;2023-05-07T07:15:47;11.10;69.40
12819;DHT22;6474;53.474;9.894;2023-05-07T07:18:15;11.10;69.40
12819;DHT22;6474;53.474;9.894;2023-05-07T07:20:42;11.10;69.40
12819;DHT22;6474;53.474;9.894;2023-05-07T07:23:11;11.10;69.50
12819;DHT22;6474;53.474;9.894;2023-05-07T07:25:39;11.20;69.50
12819;DHT22;6474;53.474;9.894;2023-05-07T07:28:08;11.20;69.50
12819;DHT22;6474;53.474;9.894;2023-05-07T07:30:37;11.20;69.50
12819;DHT22;6474;53.474;9.894;2023-05-07T07:33:05;11.30;69.60
12819;DHT22;6474;53.474;9.894;2023-05-07T07:35:33;11.40;69.70
12819;DHT22;6474;53.474;9.894;2023-05-07T07:38:01;11.40;69.50
12819;DHT22;6474;53.474;9.894;2023-05-07T07:40:29;11.40;69.50
12819;DHT22;6474;53.474;9.894;2023-05-07T07:42:57;11.50;69.60
12819;DHT22;6474;53.474;9.894;2023-05-07T07:45:26;11.50;69.60
12819;DHT22;6474;53.474;9.894;2023-05-07T07:47:54;11.50;69.70
12819;DHT22;6474;53.474;9.894;2023-05-07T07:50:22;11.60;69.70
12819;DHT22;6474;53.474;9.894;2023-05-07T07:53:09;11.60;70.40
12819;DHT22;6474;53.474;9.894;2023-05-07T07:55:38;11.60;69.60
12819;DHT22;6474;53.474;9.894;2023-05-07T07:58:06;11.70;69.70
12819;DHT22;6474;53.474;9.894;2023-05-07T08:00:36;11.70;69.70
12819;DHT22;6474;53.474;9.894;2023-05-07T08:03:04;11.60;69.60
12819;DHT22;6474;53.474;9.894;2023-05-07T08:05:33;11.70;69.80
12819;DHT22;6474;53.474;9.894;2023-05-07T08:08:02;11.70;69.90
12819;DHT22;6474;53.474;9.894;2023-05-07T08:10:29;11.70;69.80
12819;DHT22;6474;53.474;9.894;2023-05-07T08:13:01;11.80;69.90
12819;DHT22;6474;53.474;9.894;2023-05-07T08:15:30;11.80;69.90
12819;DHT22;6474;53.474;9.894;2023-05-07T08:18:00;11.80;69.90
12819;DHT22;6474;53.474;9.894;2023-05-07T08:20:29;11.90;70.00
12819;DHT22;6474;53.474;9.894;2023-05-07T08:22:57;11.90;70.00
12819;DHT22;6474;53.474;9.894;2023-05-07T08:25:25;11.90;69.90
12819;DHT22;6474;53.474;9.894;2023-05-07T08:27:52;12.00;69.90
12819;DHT22;6474;53.474;9.894;2023-05-07T08:30:21;12.00;69.90
12819;DHT22;6474;53.474;9.894;2023-05-07T08:32:49;12.00;69.90
12819;DHT22;6474;53.474;9.894;2023-05-07T08:35:18;12.10;69.90
12819;DHT22;6474;53.474;9.894;2023-05-07T08:37:46;12.20;70.00
12819;DHT22;6474;53.474;9.894;2023-05-07T08:40:14;12.20;69.80
12819;DHT22;6474;53.474;9.894;2023-05-07T08:42:44;12.20;69.80
12819;DHT22;6474;53.474;9.894;2023-05-07T08:45:12;12.20;69.90
12819;DHT22;6474;53.474;9.894;2023-05-07T08:47:43;12.30;70.00
12819;DHT22;6474;53.474;9.894;2023-05-07T08:50:13;12.30;70.00
12819;DHT22;6474;53.474;9.894;2023-05-07T08:52:42;12.30;69.90
12819;DHT22;6474;53.474;9.894;2023-05-07T08:55:10;12.40;70.10
12819;DHT22;6474;53.474;9.894;2023-05-07T08:57:38;12.40;70.20
12819;DHT22;6474;53.474;9.894;2023-05-07T09:00:07;12.40;70.20
12819;DHT22;6474;53.474;9.894;2023-05-07T09:02:38;12.40;70.20
12819;DHT22;6474;53.474;9.894;2023-05-07T09:05:07;12.40;70.10
12819;DHT22;6474;53.474;9.894;2023-05-07T09:07:35;12.50;70.20
12819;DHT22;6474;53.474;9.894;2023-05-07T09:10:06;12.50;70.20
12819;DHT22;6474;53.474;9.894;2023-05-07T09:12:34;12.60;70.20
12819;DHT22;6474;53.474;9.894;2023-05-07T09:15:03;12.60;70.10
12819;DHT22;6474;53.474;9.894;2023-05-07T09:17:31;12.60;70.10
12819;DHT22;6474;53.474;9.894;2023-05-07T09:20:02;12.60;70.10
12819;DHT22;6474;53.474;9.894;2023-05-07T09:22:31;12.60;70.10
12819;DHT22;6474;53.474;9.894;2023-05-07T09:25:01;12.60;70.00
12819;DHT22;6474;53.474;9.894;2023-05-07T09:27:31;12.60;70.00
12819;DHT22;6474;53.474;9.894;2023-05-07T09:29:59;12.60;70.00
12819;DHT22;6474;53.474;9.894;2023-05-07T09:32:26;12.70;70.20
12819;DHT22;6474;53.474;9.894;2023-05-07T09:34:54;12.70;70.20
12819;DHT22;6474;53.474;9.894;2023-05-07T09:37:26;12.70;70.30
12819;DHT22;6474;53.474;9.894;2023-05-07T09:39:54;12.80;70.30
12819;DHT22;6474;53.474;9.894;2023-05-07T09:42:25;12.80;70.20
12819;DHT22;6474;53.474;9.894;2023-05-07T09:44:55;12.80;70.10
12819;DHT22;6474;53.474;9.894;2023-05-07T09:47:24;12.80;70.00
12819;DHT22;6474;53.474;9.894;2023-05-07T09:49:55;12.80;70.10
12819;DHT22;6474;53.474;9.894;2023-05-07T09:52:24;12.80;70.20
12819;DHT22;6474;53.474;9.894;2023-05-07T09:54:56;12.90;70.40
12819;DHT22;6474;53.474;9.894;2023-05-07T09:57:26;13.00;70.30
12819;DHT22;6474;53.474;9.894;2023-05-07T09:59:56;13.00;70.20
12819;DHT22;6474;53.474;9.894;2023-05-07T10:02:27;13.10;70.10
12819;DHT22;6474;53.474;9.894;2023-05-07T10:04:57;13.00;70.00
12819;DHT22;6474;53.474;9.894;2023-05-07T10:07:27;13.00;70.10
12819;DHT22;6474;53.474;9.894;2023-05-07T10:09:57;13.10;70.30
12819;DHT22;6474;53.474;9.894;2023-05-07T10:12:26;13.20;70.40
12819;DHT22;6474;53.474;9.894;2023-05-07T10:14:56;13.20;70.20
12819;DHT22;6474;53.474;9.894;2023-05-07T10:17:24;13.30;70.30
12819;DHT22;6474;53.474;9.894;2023-05-07T10:19:53;13.30;70.20
12819;DHT22;6474;53.474;9.894;2023-05-07T10:22:21;13.30;70.10
12819;DHT22;6474;53.474;9.894;2023-05-07T10:24:52;13.40;70.20
12819;DHT22;6474;53.474;9.894;2023-05-07T10:27:21;13.40;70.30
12819;DHT22;6474;53.474;9.894;2023-05-07T10:29:56;13.40;70.20
12819;DHT22;6474;53.474;9.894;2023-05-07T10:32:37;13.50;70.30
12819;DHT22;6474;53.474;9.894;2023-05-07T10:35:10;13.50;71.10
12819;DHT22;6474;53.474;9.894;2023-05-07T10:37:39;13.60;70.40
12819;DHT22;6474;53.474;9.894;2023-05-07T10:40:09;13.70;70.60
12819;DHT22;6474;53.474;9.894;2023-05-07T10:42:37;13.80;70.70
12819;DHT22;6474;53.474;9.894;2023-05-07T10:45:15;13.90;70.80
12819;DHT22;6474;53.474;9.894;2023-05-07T10:48:10;14.00;70.50
12819;DHT22;6474;53.474;9.894;2023-05-07T10:51:19;14.00;70.50
12819;DHT22;6474;53.474;9.894;2023-05-07T10:53:47;14.00;70.30
12819;DHT22;6474;53.474;9.894;2023-05-07T10:56:26;14.10;70.30
12819;DHT22;6474;53.474;9.894;2023-05-07T10:58:54;14.10;70.30
12819;DHT22;6474;53.474;9.894;2023-05-07T11:01:53;14.10;70.30
12819;DHT22;6474;53.474;9.894;2023-05-07T11:04:21;14.10;70.30
12819;DHT22;6474;53.474;9.894;2023-05-07T11:07:20;14.20;70.40
12819;DHT22;6474;53.474;9.894;2023-05-07T11:10:09;14.30;70.50
12819;DHT22;6474;53.474;9.894;2023-05-07T11:12:50;14.30;70.50
12819;DHT22;6474;53.474;9.894;2023-05-07T11:18:21;14.50;70.50
12819;DHT22;6474;53.474;9.894;2023-05-07T11:20:57;14.60;70.60
12819;DHT22;6474;53.474;9.894;2023-05-07T11:26:47;14.60;70.50
12819;DHT22;6474;53.474;9.894;2023-05-07T11:29:17;14.50;70.40
12819;DHT22;6474;53.474;9.894;2023-05-07T11:31:49;14.50;70.40
12819;DHT22;6474;53.474;9.894;2023-05-07T11:34:22;14.50;70.70
12819;DHT22;6474;53.474;9.894;2023-05-07T11:36:51;14.60;70.70
12819;DHT22;6474;53.474;9.894;2023-05-07T11:39:37;14.70;70.60
12819;DHT22;6474;53.474;9.894;2023-05-07T11:42:05;14.80;70.60
12819;DHT22;6474;53.474;9.894;2023-05-07T11:44:42;14.80;70.40
12819;DHT22;6474;53.474;9.894;2023-05-07T11:47:10;14.80;70.60
12819;DHT22;6474;53.474;9.894;2023-05-07T11:49:40;14.90;70.50
12819;DHT22;6474;53.474;9.894;2023-05-07T11:52:08;14.90;70.20
12819;DHT22;6474;53.474;9.894;2023-05-07T11:54:37;14.90;70.10
12819;DHT22;6474;53.474;9.894;2023-05-07T11:57:05;14.80;70.20
12819;DHT22;6474;53.474;9.894;2023-05-07T11:59:38;14.80;70.30
12819;DHT22;6474;53.474;9.894;2023-05-07T12:02:06;14.90;70.40
12819;DHT22;6474;53.474;9.894;2023-05-07T12:04:34;14.80;70.20
12819;DHT22;6474;53.474;9.894;2023-05-07T12:07:03;14.90;70.20
12819;DHT22;6474;53.474;9.894;2023-05-07T12:09:32;14.90;70.20
12819;DHT22;6474;53.474;9.894;2023-05-07T12:12:03;15.00;70.20
12819;DHT22;6474;53.474;9.894;2023-05-07T12:14:31;15.10;70.30
12819;DHT22;6474;53.474;9.894;2023-05-07T12:17:01;15.20;70.40
12819;DHT22;6474;53.474;9.894;2023-05-07T12:19:30;15.30;70.40
12819;DHT22;6474;53.474;9.894;2023-05-07T12:21:58;15.40;70.30
12819;DHT22;6474;53.474;9.894;2023-05-07T12:24:27;15.40;70.30
12819;DHT22;6474;53.474;9.894;2023-05-07T12:26:56;15.50;70.30
12819;DHT22;6474;53.474;9.894;2023-05-07T12:29:23;15.60;70.30
12819;DHT22;6474;53.474;9.894;2023-05-07T12:31:52;15.60;70.10
12819;DHT22;6474;53.474;9.894;2023-05-07T12:34:20;15.70;70.10
12819;DHT22;6474;53.474;9.894;2023-05-07T12:36:49;15.80;70.10
12819;DHT22;6474;53.474;9.894;2023-05-07T12:39:17;15.90;70.20
12819;DHT22;6474;53.474;9.894;2023-05-07T12:41:56;16.00;70.10
12819;DHT22;6474;53.474;9.894;2023-05-07T12:44:28;16.20;70.00
12819;DHT22;6474;53.474;9.894;2023-05-07T12:46:58;16.30;69.80
12819;DHT22;6474;53.474;9.894;2023-05-07T12:49:28;16.30;69.60
12819;DHT22;6474;53.474;9.894;2023-05-07T12:51:56;16.40;69.60
12819;DHT22;6474;53.474;9.894;2023-05-07T12:54:28;16.40;69.70
12819;DHT22;6474;53.474;9.894;2023-05-07T12:57:06;16.40;69.60
12819;DHT22;6474;53.474;9.894;2023-05-07T12:59:35;16.40;69.60
12819;DHT22;6474;53.474;9.894;2023-05-07T13:02:04;16.50;69.80
12819;DHT22;6474;53.474;9.894;2023-05-07T13:04:32;16.50;69.70
12819;DHT22;6474;53.474;9.894;2023-05-07T13:07:01;16.60;69.80
12819;DHT22;6474;53.474;9.894;2023-05-07T13:09:29;16.70;69.60
12819;DHT22;6474;53.474;9.894;2023-05-07T13:11:57;16.70;70.00
12819;DHT22;6474;53.474;9.894;2023-05-07T13:14:27;16.80;69.50
12819;DHT22;6474;53.474;9.894;2023-05-07T13:16:55;16.90;69.50
12819;DHT22;6474;53.474;9.894;2023-05-07T13:19:23;17.00;69.40
12819;DHT22;6474;53.474;9.894;2023-05-07T13:21:51;17.10;69.30
12819;DHT22;6474;53.474;9.894;2023-05-07T13:24:19;17.20;69.10
12819;DHT22;6474;53.474;9.894;2023-05-07T13:26:47;17.20;69.00
12819;DHT22;6474;53.474;9.894;2023-05-07T13:29:14;17.30;69.10
12819;DHT22;6474;53.474;9.894;2023-05-07T13:31:44;17.30;69.10
12819;DHT22;6474;53.474;9.894;2023-05-07T13:34:13;17.40;69.20
12819;DHT22;6474;53.474;9.894;2023-05-07T13:36:42;17.40;69.20
12819;DHT22;6474;53.474;9.894;2023-05-07T13:39:10;17.40;69.20
12819;DHT22;6474;53.474;9.894;2023-05-07T13:41:37;17.30;69.10
12819;DHT22;6474;53.474;9.894;2023-05-07T13:44:05;17.30;69.10
12819;DHT22;6474;53.474;9.894;2023-05-07T13:46:33;17.20;69.00
12819;DHT22;6474;53.474;9.894;2023-05-07T13:49:02;17.10;68.90
12819;DHT22;6474;53.474;9.894;2023-05-07T13:51:30;17.20;69.00
12819;DHT22;6474;53.474;9.894;2023-05-07T13:53:58;17.20;69.00
12819;DHT22;6474;53.474;9.894;2023-05-07T13:56:26;17.10;68.90
12819;DHT22;6474;53.474;9.894;2023-05-07T13:58:54;17.00;68.70
12819;DHT22;6474;53.474;9.894;2023-05-07T14:01:26;17.00;68.70
12819;DHT22;6474;53.474;9.894;2023-05-07T14:03:55;16.90;68.60
12819;DHT22;6474;53.474;9.894;2023-05-07T14:06:25;17.00;68.70
12819;DHT22;6474;53.474;9.894;2023-05-07T14:08:53;17.00;69.60
12819;DHT22;6474;53.474;9.894;2023-05-07T14:11:20;17.10;68.90
12819;DHT22;6474;53.474;9.894;2023-05-07T14:13:48;17.10;68.90
12819;DHT22;6474;53.474;9.894;2023-05-07T14:16:16;17.10;68.90
12819;DHT22;6474;53.474;9.894;2023-05-07T14:18:44;17.00;68.70
12819;DHT22;6474;53.474;9.894;2023-05-07T14:21:12;17.00;68.70
12819;DHT22;6474;53.474;9.894;2023-05-07T14:23:41;17.00;68.70
12819;DHT22;6474;53.474;9.894;2023-05-07T14:26:09;17.00;68.70
12819;DHT22;6474;53.474;9.894;2023-05-07T14:28:37;17.10;68.90
12819;DHT22;6474;53.474;9.894;2023-05-07T14:31:06;17.20;68.70
12819;DHT22;6474;53.474;9.894;2023-05-07T14:33:33;17.20;68.30
12819;DHT22;6474;53.474;9.894;2023-05-07T14:36:01;17.10;68.30
12819;DHT22;6474;53.474;9.894;2023-05-07T14:38:30;17.00;68.00
12819;DHT22;6474;53.474;9.894;2023-05-07T14:41:00;16.80;68.10
12819;DHT22;6474;53.474;9.894;2023-05-07T14:43:28;16.70;68.40
12819;DHT22;6474;53.474;9.894;2023-05-07T14:45:56;16.60;68.40
12819;DHT22;6474;53.474;9.894;2023-05-07T14:48:24;16.60;68.30
12819;DHT22;6474;53.474;9.894;2023-05-07T14:50:52;16.60;68.30
12819;DHT22;6474;53.474;9.894;2023-05-07T14:53:19;16.50;68.20
12819;DHT22;6474;53.474;9.894;2023-05-07T14:55:49;16.40;68.10
12819;DHT22;6474;53.474;9.894;2023-05-07T14:58:18;16.40;68.10
12819;DHT22;6474;53.474;9.894;2023-05-07T15:00:46;16.30;68.00
12819;DHT22;6474;53.474;9.894;2023-05-07T15:03:14;16.20;68.10
12819;DHT22;6474;53.474;9.894;2023-05-07T15:05:42;16.20;68.40
12819;DHT22;6474;53.474;9.894;2023-05-07T15:08:09;16.10;68.40
12819;DHT22;6474;53.474;9.894;2023-05-07T15:10:38;16.10;68.60
12819;DHT22;6474;53.474;9.894;2023-05-07T15:13:08;16.00;68.60
12819;DHT22;6474;53.474;9.894;2023-05-07T15:15:43;16.00;68.70
12819;DHT22;6474;53.474;9.894;2023-05-07T15:18:11;16.10;68.80
12819;DHT22;6474;53.474;9.894;2023-05-07T15:20:39;16.00;68.70
12819;DHT22;6474;53.474;9.894;2023-05-07T15:23:08;16.10;68.90
12819;DHT22;6474;53.474;9.894;2023-05-07T15:25:38;16.10;68.90
12819;DHT22;6474;53.474;9.894;2023-05-07T15:28:06;16.20;68.90
12819;DHT22;6474;53.474;9.894;2023-05-07T15:30:35;16.20;68.90
12819;DHT22;6474;53.474;9.894;2023-05-07T15:33:04;16.30;68.80
12819;DHT22;6474;53.474;9.894;2023-05-07T15:35:32;16.30;68.70
12819;DHT22;6474;53.474;9.894;2023-05-07T15:38:00;16.30;68.70
12819;DHT22;6474;53.474;9.894;2023-05-07T15:40:29;16.40;68.70
12819;DHT22;6474;53.474;9.894;2023-05-07T15:42:57;16.40;68.60
12819;DHT22;6474;53.474;9.894;2023-05-07T15:45:25;16.40;68.60
12819;DHT22;6474;53.474;9.894;2023-05-07T15:47:53;16.40;68.50
12819;DHT22;6474;53.474;9.894;2023-05-07T15:50:22;16.40;68.20
12819;DHT22;6474;53.474;9.894;2023-05-07T15:52:50;16.40;68.10
12819;DHT22;6474;53.474;9.894;2023-05-07T15:55:18;16.40;68.10
12819;DHT22;6474;53.474;9.894;2023-05-07T15:57:45;16.40;68.10
12819;DHT22;6474;53.474;9.894;2023-05-07T16:00:14;16.40;68.10
12819;DHT22;6474;53.474;9.894;2023-05-07T16:02:43;16.40;68.10
12819;DHT22;6474;53.474;9.894;2023-05-07T16:05:11;16.40;68.10
12819;DHT22;6474;53.474;9.894;2023-05-07T16:07:40;16.40;68.10